createdAt,value
2017-06-04T00:02:16.271Z,16.30
2017-06-04T00:04:45.360Z,19.10
2017-06-04T00:07:14.439Z,18.63
2017-06-04T00:09:43.543Z,17.97
2017-06-04T00:12:13.136Z,16.57
2017-06-04T00:14:41.534Z,20.60
2017-06-04T00:17:10.631Z,18.73
2017-06-04T00:19:40.091Z,19.33
2017-06-04T00:22:08.395Z,19.13
2017-06-04T00:24:36.798Z,18.50
2017-06-04T00:27:05.879Z,20.43
2017-06-04T00:29:35.224Z,17.63
2017-06-04T00:32:03.562Z,21.00
2017-06-04T00:34:31.998Z,19.27
2017-06-04T00:37:00.720Z,18.93
2017-06-04T00:39:29.186Z,20.10
2017-06-04T00:41:57.587Z,21.30
2017-06-04T00:44:26.783Z,19.40
2017-06-04T00:46:55.839Z,18.50
2017-06-04T00:49:24.355Z,15.43
2017-06-04T00:51:53.440Z,15.80
2017-06-04T00:54:21.831Z,15.20
2017-06-04T00:56:51.287Z,13.67
2017-06-04T00:59:19.615Z,13.80
2017-06-04T01:01:48.200Z,13.43
2017-06-04T01:04:16.676Z,15.00
2017-06-04T01:06:45.738Z,15.10
2017-06-04T01:09:14.052Z,12.70
2017-06-04T01:11:43.348Z,14.33
2017-06-04T01:14:11.723Z,13.07
2017-06-04T01:16:40.520Z,13.63
2017-06-04T01:19:09.709Z,14.80
2017-06-04T01:21:38.805Z,14.17
2017-06-04T01:24:07.381Z,14.37
2017-06-04T01:26:36.455Z,14.20
2017-06-04T01:29:04.761Z,17.17
2017-06-04T01:31:33.086Z,15.80
2017-06-04T01:34:01.443Z,15.50
2017-06-04T01:36:30.001Z,16.87
2017-06-04T01:38:58.378Z,19.93
2017-06-04T01:41:27.443Z,17.43
2017-06-04T01:43:55.840Z,18.20
2017-06-04T01:46:24.936Z,18.50
2017-06-04T01:48:54.036Z,19.57
2017-06-04T01:51:22.367Z,19.30
2017-06-04T01:53:51.091Z,19.87
2017-06-04T01:56:20.171Z,21.43
2017-06-04T01:58:48.481Z,25.30
2017-06-04T02:01:16.842Z,25.30
2017-06-04T02:03:45.931Z,24.93
2017-06-04T02:06:15.174Z,24.30
2017-06-04T02:08:43.517Z,27.77
2017-06-04T02:11:12.582Z,28.10
2017-06-04T02:13:40.915Z,34.77
2017-06-04T02:16:09.214Z,38.00
2017-06-04T02:18:37.541Z,39.83
2017-06-04T02:21:06.655Z,45.23
2017-06-04T02:23:35.867Z,49.83
2017-06-04T02:26:04.166Z,50.63
2017-06-04T02:28:32.590Z,49.30
2017-06-04T02:31:01.776Z,49.17
2017-06-04T02:33:30.962Z,50.23
2017-06-04T02:36:00.483Z,52.23
2017-06-04T02:38:28.866Z,48.07
2017-06-04T02:40:57.176Z,56.20
2017-06-04T02:43:25.720Z,52.97
2017-06-04T02:45:54.810Z,51.83
2017-06-04T02:48:23.915Z,47.93
2017-06-04T02:50:53.004Z,45.97
2017-06-04T02:53:22.203Z,47.40
2017-06-04T02:55:51.498Z,44.60
2017-06-04T02:58:19.798Z,41.77
2017-06-04T03:00:48.106Z,40.20
2017-06-04T03:03:16.423Z,39.80
2017-06-04T03:05:45.528Z,35.57
2017-06-04T03:08:14.831Z,33.80
2017-06-04T03:10:43.919Z,34.87
2017-06-04T03:13:12.983Z,34.63
2017-06-04T03:15:41.395Z,34.07
2017-06-04T03:18:09.703Z,36.27
2017-06-04T03:20:38.143Z,39.47
2017-06-04T03:23:07.234Z,43.07
2017-06-04T03:25:35.668Z,43.83
2017-06-04T03:28:03.998Z,46.87
2017-06-04T03:30:32.311Z,51.57
2017-06-04T03:33:00.671Z,52.93
2017-06-04T03:35:28.981Z,60.00
2017-06-04T03:37:57.506Z,62.70
2017-06-04T03:40:26.609Z,65.20
2017-06-04T03:42:55.663Z,69.23
2017-06-04T03:45:24.077Z,68.70
2017-06-04T03:47:53.173Z,63.33
2017-06-04T03:50:22.470Z,68.00
2017-06-04T03:52:52.278Z,70.00
2017-06-04T03:55:21.345Z,76.00
2017-06-04T03:57:49.750Z,85.90
2017-06-04T04:00:18.815Z,75.60
2017-06-04T04:02:47.227Z,74.73
2017-06-04T04:05:15.606Z,79.53
2017-06-04T04:07:44.902Z,82.93
2017-06-04T04:10:13.968Z,82.67
2017-06-04T04:12:42.276Z,79.00
2017-06-04T04:15:10.627Z,92.43
2017-06-04T04:17:39.030Z,92.53
2017-06-04T04:20:08.226Z,68.57
2017-06-04T04:22:36.613Z,81.20
2017-06-04T04:25:05.881Z,64.07
2017-06-04T04:27:34.390Z,66.57
2017-06-04T04:30:03.452Z,64.80
2017-06-04T04:32:31.877Z,59.10
2017-06-04T04:35:00.237Z,54.27
2017-06-04T04:37:29.339Z,62.10
2017-06-04T04:39:58.426Z,55.47
2017-06-04T04:42:27.499Z,51.93
2017-06-04T04:44:56.001Z,47.17
2017-06-04T04:47:24.442Z,43.83
2017-06-04T04:49:52.859Z,54.77
2017-06-04T04:52:21.947Z,45.10
2017-06-04T04:54:50.242Z,45.07
2017-06-04T04:57:18.612Z,48.23
2017-06-04T04:59:47.689Z,47.80
2017-06-04T05:02:16.186Z,48.63
2017-06-04T05:04:45.267Z,52.77
2017-06-04T05:07:14.374Z,49.83
2017-06-04T05:09:43.568Z,53.50
2017-06-04T05:12:12.008Z,45.77
2017-06-04T05:14:40.534Z,48.30
2017-06-04T05:17:08.848Z,48.97
2017-06-04T05:19:37.191Z,49.97
2017-06-04T05:22:11.239Z,47.80
2017-06-04T05:24:39.571Z,49.40
2017-06-04T05:27:08.663Z,50.60
2017-06-04T05:29:37.758Z,56.50
2017-06-04T05:32:06.343Z,46.97
2017-06-04T05:34:34.680Z,47.13
2017-06-04T05:37:03.000Z,53.33
2017-06-04T05:39:32.190Z,61.77
2017-06-04T05:42:01.254Z,55.90
2017-06-04T05:44:29.787Z,40.40
2017-06-04T05:46:58.089Z,35.47
2017-06-04T05:49:26.434Z,42.27
2017-06-04T05:51:56.564Z,47.23
2017-06-04T05:54:24.858Z,44.77
2017-06-04T05:56:53.307Z,61.17
2017-06-04T05:59:21.676Z,52.20
2017-06-04T06:01:50.747Z,59.70
2017-06-04T06:04:19.055Z,62.93
2017-06-04T06:06:48.128Z,55.00
2017-06-04T06:09:17.247Z,60.03
2017-06-04T06:11:46.300Z,70.60
2017-06-04T06:14:14.769Z,79.47
2017-06-04T06:16:43.064Z,74.33
2017-06-04T06:19:12.151Z,75.33
2017-06-04T06:21:40.774Z,89.97
2017-06-04T06:24:09.834Z,90.77
2017-06-04T06:26:38.146Z,87.53
2017-06-04T06:29:06.505Z,93.03
2017-06-04T06:31:35.223Z,86.07
2017-06-04T06:34:03.550Z,104.63
2017-06-04T06:36:31.867Z,89.47
2017-06-04T06:39:01.058Z,90.33
2017-06-04T06:41:30.123Z,96.43
2017-06-04T06:43:58.423Z,100.70
2017-06-04T06:46:27.371Z,90.87
2017-06-04T06:48:55.667Z,76.37
2017-06-04T06:51:24.097Z,81.27
2017-06-04T06:53:52.402Z,78.50
2017-06-04T06:56:20.707Z,87.40
2017-06-04T06:58:49.020Z,89.67
2017-06-04T07:01:17.327Z,86.47
2017-06-04T07:03:45.751Z,92.47
2017-06-04T07:06:14.055Z,97.13
2017-06-04T07:08:42.362Z,112.10
2017-06-04T07:11:10.885Z,90.93
2017-06-04T07:13:39.953Z,108.57
2017-06-04T07:16:08.259Z,114.67
2017-06-04T07:18:36.599Z,114.17
2017-06-04T07:21:04.909Z,91.80
2017-06-04T07:23:34.313Z,94.07
2017-06-04T07:26:03.403Z,84.27
2017-06-04T07:28:32.512Z,95.97
2017-06-04T07:31:00.840Z,98.50
2017-06-04T07:33:29.187Z,120.47
2017-06-04T07:35:57.627Z,96.60
2017-06-04T07:38:26.695Z,100.53
2017-06-04T07:40:55.016Z,119.50
2017-06-04T07:43:23.343Z,113.60
2017-06-04T07:45:51.662Z,93.23
2017-06-04T07:48:21.063Z,95.17
2017-06-04T07:50:49.373Z,111.30
2017-06-04T07:53:17.699Z,116.47
2017-06-04T07:55:46.019Z,95.17
2017-06-04T07:58:14.325Z,103.70
2017-06-04T08:00:42.726Z,98.70
2017-06-04T08:03:11.010Z,145.63
2017-06-04T08:05:40.426Z,115.93
2017-06-04T08:08:09.608Z,104.97
2017-06-04T08:10:38.677Z,91.97
2017-06-04T08:13:07.406Z,92.33
2017-06-04T08:15:36.471Z,75.07
2017-06-04T08:18:04.770Z,84.23
2017-06-04T08:20:34.072Z,60.63
2017-06-04T08:23:03.149Z,70.07
2017-06-04T08:25:31.452Z,61.03
2017-06-04T08:27:59.890Z,42.80
2017-06-04T08:30:28.191Z,35.27
2017-06-04T08:32:56.481Z,31.03
2017-06-04T08:35:25.682Z,36.40
2017-06-04T08:37:53.995Z,36.40
2017-06-04T08:40:22.298Z,35.00
2017-06-04T08:42:51.203Z,32.00
2017-06-04T08:45:19.512Z,35.73
2017-06-04T08:47:47.941Z,30.20
2017-06-04T08:50:16.224Z,26.57
2017-06-04T08:52:44.519Z,31.53
2017-06-04T08:55:13.624Z,27.60
2017-06-04T08:57:42.692Z,33.10
2017-06-04T09:00:11.398Z,33.27
2017-06-04T09:02:39.706Z,30.30
2017-06-04T09:05:08.019Z,36.23
2017-06-04T09:07:36.348Z,32.23
2017-06-04T09:10:04.699Z,33.87
2017-06-04T09:12:33.054Z,36.50
2017-06-04T09:15:01.360Z,32.37
2017-06-04T09:17:30.419Z,35.47
2017-06-04T09:19:58.752Z,37.97
2017-06-04T09:22:27.063Z,38.70
2017-06-04T09:24:55.567Z,39.37
2017-06-04T09:27:24.118Z,40.10
2017-06-04T09:29:52.426Z,41.57
2017-06-04T09:32:20.739Z,40.17
2017-06-04T09:34:49.063Z,40.30
2017-06-04T09:37:17.386Z,38.70
2017-06-04T09:39:45.694Z,41.63
2017-06-04T09:42:14.134Z,36.87
2017-06-04T09:44:42.426Z,34.77
2017-06-04T09:47:10.730Z,35.90
2017-06-04T09:49:39.062Z,32.80
2017-06-04T09:52:08.124Z,33.83
2017-06-04T09:54:36.554Z,31.33
2017-06-04T09:57:04.962Z,30.80
2017-06-04T09:59:33.270Z,27.90
2017-06-04T10:02:02.391Z,29.00
2017-06-04T10:04:31.486Z,29.27
2017-06-04T10:06:59.930Z,27.67
2017-06-04T10:09:28.235Z,28.90
2017-06-04T10:11:57.299Z,27.30
2017-06-04T10:14:25.634Z,27.87
2017-06-04T10:16:53.946Z,24.70
2017-06-04T10:19:22.580Z,23.43
2017-06-04T10:21:50.894Z,22.73
2017-06-04T10:24:19.337Z,25.93
2017-06-04T10:26:47.637Z,21.80
2017-06-04T10:29:15.968Z,24.90
2017-06-04T10:31:45.055Z,18.20
2017-06-04T10:34:13.383Z,16.70
2017-06-04T10:36:41.841Z,18.10
2017-06-04T10:39:10.179Z,14.33
2017-06-04T10:41:38.491Z,11.60
2017-06-04T10:44:06.806Z,11.17
2017-06-04T10:46:35.095Z,12.53
2017-06-04T10:49:03.536Z,12.80
2017-06-04T10:51:31.842Z,10.57
2017-06-04T10:54:00.382Z,8.23
2017-06-04T10:56:28.696Z,6.87
2017-06-04T10:58:56.970Z,9.43
2017-06-04T11:01:25.271Z,7.27
2017-06-04T11:03:53.586Z,8.50
2017-06-04T11:06:22.268Z,8.17
2017-06-04T11:08:51.327Z,9.37
2017-06-04T11:11:19.737Z,10.20
2017-06-04T11:13:48.919Z,8.90
2017-06-04T11:16:17.285Z,11.20
2017-06-04T11:18:45.683Z,8.40
2017-06-04T11:21:14.918Z,9.57
2017-06-04T11:23:43.218Z,9.77
2017-06-04T11:26:11.508Z,10.43
2017-06-04T11:28:39.821Z,8.60
2017-06-04T11:31:08.890Z,10.53
2017-06-04T11:33:37.320Z,8.40
2017-06-04T11:36:05.606Z,8.10
2017-06-04T11:38:33.936Z,10.70
2017-06-04T11:41:03.134Z,13.33
2017-06-04T11:43:32.207Z,11.23
2017-06-04T11:46:00.706Z,11.60
2017-06-04T11:48:29.787Z,11.63
2017-06-04T11:50:58.895Z,12.77
2017-06-04T11:53:27.270Z,12.30
2017-06-04T11:55:55.660Z,9.73
2017-06-04T11:58:24.765Z,9.40
2017-06-04T12:00:53.059Z,10.80
2017-06-04T12:03:25.192Z,11.53
2017-06-04T12:05:53.499Z,9.07
2017-06-04T12:08:21.799Z,6.70
2017-06-04T12:10:50.124Z,9.50
2017-06-04T12:13:19.183Z,7.77
2017-06-04T12:15:47.614Z,7.87
2017-06-04T12:18:15.922Z,8.63
2017-06-04T12:20:44.203Z,8.30
2017-06-04T12:23:12.659Z,8.30
2017-06-04T12:25:41.163Z,7.17
2017-06-04T12:28:09.487Z,7.73
2017-06-04T12:30:38.789Z,8.57
2017-06-04T12:33:07.854Z,8.90
2017-06-04T12:35:36.166Z,6.10
2017-06-04T12:38:05.647Z,7.93
2017-06-04T12:40:34.107Z,16.37
2017-06-04T12:43:03.296Z,10.47
2017-06-04T12:45:32.599Z,8.50
2017-06-04T12:48:01.583Z,12.27
2017-06-04T12:50:30.726Z,11.20
2017-06-04T12:53:00.955Z,9.10
2017-06-04T12:55:30.925Z,9.73
2017-06-04T12:57:59.446Z,10.70
2017-06-04T13:00:27.747Z,8.97
2017-06-04T13:02:56.047Z,8.40
2017-06-04T13:05:24.350Z,9.43
2017-06-04T13:07:52.647Z,9.03
2017-06-04T13:10:21.306Z,11.80
2017-06-04T13:12:50.531Z,10.87
2017-06-04T13:15:19.626Z,8.93
2017-06-04T13:17:47.924Z,10.00
2017-06-04T13:20:16.256Z,10.97
2017-06-04T13:22:44.559Z,8.97
2017-06-04T13:25:13.628Z,13.57
2017-06-04T13:27:41.964Z,10.47
2017-06-04T13:30:10.255Z,10.07
2017-06-04T13:32:38.726Z,9.30
2017-06-04T13:35:07.018Z,9.70
2017-06-04T13:37:35.299Z,9.40
2017-06-04T13:40:03.914Z,11.63
2017-06-04T13:42:32.981Z,8.30
2017-06-04T13:45:01.298Z,8.70
2017-06-04T13:47:29.619Z,12.40
2017-06-04T13:49:57.917Z,8.97
2017-06-04T13:52:26.247Z,9.13
2017-06-04T13:54:54.538Z,7.87
2017-06-04T13:57:22.861Z,8.70
2017-06-04T13:59:51.979Z,9.50
2017-06-04T14:02:20.535Z,7.53
2017-06-04T14:04:49.619Z,7.10
2017-06-04T14:07:18.691Z,10.77
2017-06-04T14:09:47.206Z,7.00
2017-06-04T14:12:15.510Z,8.67
2017-06-04T14:14:43.812Z,7.77
2017-06-04T14:17:12.125Z,8.33
2017-06-04T14:19:40.422Z,10.93
2017-06-04T14:22:08.852Z,8.47
2017-06-04T14:24:37.179Z,11.80
2017-06-04T14:27:06.227Z,9.80
2017-06-04T14:29:34.554Z,8.87
2017-06-04T14:32:03.624Z,11.80
2017-06-04T14:34:31.946Z,7.40
2017-06-04T14:37:00.256Z,17.33
2017-06-04T14:39:29.039Z,14.90
2017-06-04T14:41:57.327Z,8.73
2017-06-04T14:44:25.778Z,13.20
2017-06-04T14:46:54.057Z,9.50
2017-06-04T14:49:22.356Z,7.37
2017-06-04T14:51:50.782Z,8.53
2017-06-04T14:54:19.084Z,9.70
2017-06-04T14:56:47.387Z,9.23
2017-06-04T14:59:15.951Z,9.93
2017-06-04T15:01:44.257Z,10.57
2017-06-04T15:04:13.470Z,10.47
2017-06-04T15:06:42.542Z,10.43
2017-06-04T15:09:10.863Z,9.93
2017-06-04T15:11:39.170Z,13.10
2017-06-04T15:14:07.507Z,13.00
2017-06-04T15:16:35.823Z,10.10
2017-06-04T15:19:04.352Z,13.80
2017-06-04T15:21:33.434Z,10.67
2017-06-04T15:24:01.755Z,8.97
2017-06-04T15:26:30.084Z,11.53
2017-06-04T15:28:58.396Z,10.63
2017-06-04T15:31:26.728Z,7.23
2017-06-04T15:33:55.095Z,9.97
2017-06-04T15:36:23.571Z,8.03
2017-06-04T15:38:51.897Z,10.47
2017-06-04T15:41:20.187Z,7.27
2017-06-04T15:43:48.506Z,6.53
2017-06-04T15:46:16.806Z,7.63
2017-06-04T15:48:45.121Z,7.57
2017-06-04T15:51:13.447Z,7.23
2017-06-04T15:53:41.790Z,11.67
2017-06-04T15:56:10.102Z,7.30
2017-06-04T15:58:38.550Z,15.63
2017-06-04T16:01:07.106Z,8.23
2017-06-04T16:03:36.147Z,8.70
2017-06-04T16:06:05.331Z,8.63
2017-06-04T16:08:33.638Z,7.73
2017-06-04T16:11:02.308Z,6.70
2017-06-04T16:13:30.610Z,7.47
2017-06-04T16:15:58.927Z,9.17
2017-06-04T16:18:27.249Z,9.40
2017-06-04T16:20:55.511Z,9.20
2017-06-04T16:23:23.815Z,9.00
2017-06-04T16:25:52.874Z,8.17
2017-06-04T16:28:21.191Z,9.77
2017-06-04T16:30:50.391Z,11.00
2017-06-04T16:33:19.465Z,7.50
2017-06-04T16:35:48.542Z,9.83
2017-06-04T16:38:16.978Z,11.97
2017-06-04T16:40:45.297Z,13.83
2017-06-04T16:43:13.599Z,14.20
2017-06-04T16:45:41.947Z,14.77
2017-06-04T16:48:11.260Z,14.93
2017-06-04T16:50:39.767Z,11.00
2017-06-04T16:53:08.151Z,7.57
2017-06-04T16:55:37.236Z,7.33
2017-06-04T16:58:06.319Z,6.20
2017-06-04T17:00:34.619Z,6.40
2017-06-04T17:03:03.803Z,5.67
2017-06-04T17:05:32.859Z,6.47
2017-06-04T17:08:01.165Z,7.40
2017-06-04T17:10:29.562Z,5.60
2017-06-04T17:12:58.611Z,8.00
2017-06-04T17:15:27.031Z,7.53
2017-06-04T17:17:55.346Z,7.50
2017-06-04T17:20:23.639Z,7.90
2017-06-04T17:22:51.971Z,11.23
2017-06-04T17:25:20.288Z,7.50
2017-06-04T17:27:48.723Z,7.83
2017-06-04T17:30:17.023Z,7.97
2017-06-04T17:32:45.318Z,8.57
2017-06-04T17:35:13.636Z,6.70
2017-06-04T17:37:42.718Z,6.60
2017-06-04T17:40:11.040Z,8.50
2017-06-04T17:42:39.334Z,6.47
2017-06-04T17:45:07.877Z,7.80
2017-06-04T17:47:36.921Z,7.50
2017-06-04T17:50:05.215Z,9.33
2017-06-04T17:52:33.526Z,7.90
2017-06-04T17:55:02.599Z,8.17
2017-06-04T17:57:31.062Z,8.83
2017-06-04T18:00:00.158Z,6.20
2017-06-04T18:02:28.580Z,7.33
2017-06-04T18:04:57.142Z,9.47
2017-06-04T18:07:26.218Z,10.50
2017-06-04T18:09:54.515Z,9.73
2017-06-04T18:12:23.594Z,9.13
2017-06-04T18:14:51.878Z,6.70
2017-06-04T18:17:20.301Z,8.10
2017-06-04T18:19:48.599Z,8.53
2017-06-04T18:22:16.895Z,8.43
2017-06-04T18:24:45.599Z,7.20
2017-06-04T18:27:13.880Z,7.73
2017-06-04T18:29:42.210Z,7.40
2017-06-04T18:32:10.640Z,6.50
2017-06-04T18:34:39.703Z,6.70
2017-06-04T18:37:08.823Z,7.90
2017-06-04T18:39:38.345Z,7.20
2017-06-04T18:42:06.635Z,6.10
2017-06-04T18:44:34.930Z,6.13
2017-06-04T18:47:03.365Z,6.63
2017-06-04T18:49:32.427Z,9.23
2017-06-04T18:52:00.841Z,8.37
2017-06-04T18:54:30.038Z,9.33
2017-06-04T18:56:58.342Z,6.83
2017-06-04T18:59:26.630Z,6.80
2017-06-04T19:01:55.374Z,8.40
2017-06-04T19:04:24.423Z,6.77
2017-06-04T19:06:52.737Z,7.13
2017-06-04T19:09:21.192Z,6.10
2017-06-04T19:11:49.464Z,8.33
2017-06-04T19:14:18.576Z,6.60
2017-06-04T19:16:46.898Z,7.83
2017-06-04T19:19:15.196Z,10.13
2017-06-04T19:21:43.640Z,7.67
2017-06-04T19:24:11.952Z,7.03
2017-06-04T19:26:40.247Z,6.77
2017-06-04T19:29:08.563Z,7.23
2017-06-04T19:31:36.862Z,6.70
2017-06-04T19:34:05.165Z,9.80
2017-06-04T19:36:33.463Z,7.97
2017-06-04T19:39:01.785Z,7.20
2017-06-04T19:41:30.078Z,9.50
2017-06-04T19:43:58.392Z,8.97
2017-06-04T19:46:26.688Z,9.60
2017-06-04T19:48:55.685Z,9.80
2017-06-04T19:51:23.974Z,9.57
2017-06-04T19:53:52.298Z,7.37
2017-06-04T19:56:20.596Z,8.60
2017-06-04T19:58:48.919Z,8.47
2017-06-04T20:01:17.215Z,8.57
2017-06-04T20:03:45.733Z,8.17
2017-06-04T20:06:14.020Z,9.17
2017-06-04T20:08:42.332Z,8.67
2017-06-04T20:11:11.073Z,9.87
2017-06-04T20:13:40.143Z,10.13
2017-06-04T20:16:08.450Z,8.27
2017-06-04T20:18:37.550Z,9.73
2017-06-04T20:21:06.607Z,9.00
2017-06-04T20:23:34.907Z,8.00
2017-06-04T20:26:03.969Z,7.17
2017-06-04T20:28:32.403Z,9.50
2017-06-04T20:31:00.713Z,12.97
2017-06-04T20:33:29.003Z,9.00
2017-06-04T20:35:57.439Z,10.57
2017-06-04T20:38:25.899Z,8.90
2017-06-04T20:40:55.087Z,8.77
2017-06-04T20:43:23.415Z,10.53
2017-06-04T20:45:51.756Z,11.60
2017-06-04T20:48:21.083Z,9.73
2017-06-04T20:50:49.391Z,9.73
2017-06-04T20:53:17.687Z,12.00
2017-06-04T20:55:46.009Z,8.10
2017-06-04T20:58:14.289Z,8.80
2017-06-04T21:00:42.671Z,9.27
2017-06-04T21:03:11.272Z,9.70
2017-06-04T21:05:39.683Z,9.73
2017-06-04T21:08:08.884Z,9.03
2017-06-04T21:10:37.180Z,8.23
2017-06-04T21:13:05.619Z,8.77
2017-06-04T21:15:33.918Z,9.73
2017-06-04T21:18:02.247Z,8.50
2017-06-04T21:20:30.548Z,13.40
2017-06-04T21:22:58.851Z,9.50
2017-06-04T21:25:28.068Z,11.60
2017-06-04T21:27:56.380Z,11.07
2017-06-04T21:30:24.661Z,12.70
2017-06-04T21:32:52.990Z,12.37
2017-06-04T21:35:21.302Z,10.93
2017-06-04T21:37:49.731Z,11.63
2017-06-04T21:40:18.164Z,11.87
2017-06-04T21:42:46.479Z,11.40
2017-06-04T21:45:14.792Z,10.13
2017-06-04T21:47:43.103Z,10.37
2017-06-04T21:50:11.622Z,10.07
2017-06-04T21:52:39.932Z,9.37
2017-06-04T21:55:08.238Z,10.77
2017-06-04T21:57:36.666Z,9.57
2017-06-04T22:00:05.709Z,10.03
2017-06-04T22:02:34.003Z,8.53
2017-06-04T22:05:02.332Z,8.53
2017-06-04T22:07:30.629Z,9.33
2017-06-04T22:09:58.955Z,7.83
2017-06-04T22:12:28.010Z,9.97
2017-06-04T22:14:56.530Z,9.80
2017-06-04T22:17:25.588Z,8.63
2017-06-04T22:19:54.050Z,9.83
2017-06-04T22:22:22.370Z,8.00
2017-06-04T22:24:50.649Z,7.57
2017-06-04T22:27:19.112Z,8.57
2017-06-04T22:29:47.399Z,7.43
2017-06-04T22:32:15.707Z,8.37
2017-06-04T22:34:44.026Z,8.80
2017-06-04T22:37:12.315Z,9.07
2017-06-04T22:39:41.431Z,7.70
2017-06-04T22:42:10.491Z,7.73
2017-06-04T22:44:38.831Z,10.63
2017-06-04T22:47:07.142Z,9.37
2017-06-04T22:49:35.623Z,9.10
2017-06-04T22:52:03.932Z,8.27
2017-06-04T22:54:32.240Z,9.67
2017-06-04T22:57:00.822Z,8.80
2017-06-04T22:59:29.133Z,9.13
2017-06-04T23:01:57.427Z,7.83
2017-06-04T23:04:25.739Z,8.70
2017-06-04T23:06:54.794Z,11.00
2017-06-04T23:09:23.168Z,8.83
2017-06-04T23:11:51.488Z,9.57
2017-06-04T23:14:20.633Z,8.53
2017-06-04T23:16:48.950Z,9.70
2017-06-04T23:19:18.054Z,10.97
2017-06-04T23:21:46.402Z,10.13
2017-06-04T23:24:15.495Z,9.23
2017-06-04T23:26:43.827Z,11.10
2017-06-04T23:29:12.141Z,9.70
2017-06-04T23:31:40.557Z,13.27
2017-06-04T23:34:08.879Z,11.10
2017-06-04T23:36:37.313Z,11.80
2017-06-04T23:39:05.631Z,11.93
2017-06-04T23:41:33.947Z,10.33
2017-06-04T23:44:02.249Z,10.10
2017-06-04T23:46:30.589Z,12.20
2017-06-04T23:48:58.907Z,15.60
2017-06-04T23:51:27.237Z,12.30
2017-06-04T23:53:55.699Z,10.43
2017-06-04T23:56:24.018Z,9.83
2017-06-04T23:58:53.095Z,11.07
